ジッダ の空港の天気 - METARとTAF

キング・アブドゥルアズィーズ国際空港(ジッダ) ( OEJN / JED ) - サウジアラビア ジッダ
飛行場実況気象(Metar)
観測時間07/16 09:00 AST (07/16 06:00 UTC)
風向・風速北北西 2m/s
視程10km以上
天気現象
なし
気温34℃
湿度39%
気圧1004hPa
METAROEJN 160600Z 33004KT CAVOK 34/18 Q1004 NOSIG
過去の天気等 Google飛行場航空写真 Wunderground天気予報

過去48時間のMETAR

飛行場予報(TAF)
発表時間: 7/16 08:00 AST (7/16 05:00 UTC)
予報対象時間: 16日9時 AST ~ 17日15時 AST
風向・風速北北西 7m/s
視程10km以上
少しの雲 雲底高度 1220m
TAF OEJN 160500Z 1606/1712 33014KT 9999 FEW040